METAR Data
IDs: Format: Raw Decoded Include TAF

Data at: 0254 UTC 25 Feb 2021

KSBD 250156Z 24007KT 7SM CLR 18/M03 A2997